NO-0009 weather

Grong Airfield Bjørgan
Grong, Nord-Trøndelag, Norway

Public forecast

Using degrees Celsius for public forecast. Weather courtesy of forecast.io.

METAR (pilot weather report)

Closest report is Namsos Høknesøra Airport, 20.3 nm (37.6 km) WNW. Retrieved 2019/09/20 16:50 UTC (56 minutes ago):

ENNM 201650Z 24015KT 4000 RADZ BR FEW005 SCT009 BKN012 11/10 Q1010

TAF (pilot weather forecast)

Closest forecast is Trondheim Airport Værnes, 67.6 nm (125.1 km) SW. Retrieved 2019/09/20 12:57 UTC (5 hours ago):

TAF ENVA 201100Z 2012/2112 27030KT 8000 -RADZ SCT006 BKN015 TEMPO 2012/2112 3000 RADZ BR BKN005 BECMG 2015/2017 27020KT